Startpagina
METAR-TAF:

METAR-TAF

Vliegvelden :

Tunis, Tunesië

Luchthaven Tunis-Carthage

breedte: 36-50N, lengte: 010-14E, hoogte: 3 m

Actueel weer

Dit bericht is 14 minuten geleden gemaakt, om 06:30 UTC
Wind 4 kt uit het westzuidwesten, variërend tussen het zuidzuidwesten en het noordwesten
Temperatuur 26°C
Vochtigheid 51%
Druk 1016 hPa
Zicht 10 km of meer
geen wolken onder 1500 m en geen cumulonimbus

METAR: DTTA 280630Z 24004KT 210V310 CAVOK 26/15 Q1016 NOSIG

Tijdstip: 07:44 (06:44 UTC)

Verwachting

Dit bericht is 1 uur en het 44 minuten geleden gemaakt, om 05:00 UTC
Verwachting geldig van 28 om 06 UTC tot 29 om 06 UTC
Wind 8 kt uit het westen
Zicht 10 km of meer
Weinig wolken op 3300 ft
Wijzigt naar
van 28 om 09 UTC tot 28 om 11 UTC
Wind 10 kt uit het noordnoordoosten
Wijzigt naar
van 28 om 18 UTC tot 28 om 20 UTC
Wind 3 kt uit variabele richting

TAF: DTTA 280500Z 2806/2906 27008KT 9999 FEW033 BECMG 2809/2811 02010KT BECMG 2818/2820 VRB03KT

Waarnemingen en weersverwachtingen van meer dan 4000 vliegvelden (METAR en TAF).

De beschikbare stations zijn de gele en rode punten op de kaart.

Ga met uw muis naar het station om de naam te zien.

Klik dan om waarnemingen en weersverwachtingen te zien.

kaart wijzigen: klik op de groene knoppen met een zwart kruis om in te zoomen, op de groene knop met een streepje om uit te zoomen of op de groene pijlen voor aangrenzende kaarten.


METAR-TAF: